createdAt,value
2018-05-14T00:01:51.189Z,12.70
2018-05-14T00:04:18.628Z,12.00
2018-05-14T00:06:46.077Z,12.70
2018-05-14T00:09:13.516Z,12.80
2018-05-14T00:11:40.971Z,12.70
2018-05-14T00:14:09.180Z,12.70
2018-05-14T00:16:37.032Z,12.70
2018-05-14T00:19:05.238Z,12.70
2018-05-14T00:21:32.671Z,12.70
2018-05-14T00:24:00.124Z,12.70
2018-05-14T00:26:27.568Z,12.60
2018-05-14T00:28:55.015Z,12.70
2018-05-14T00:31:23.212Z,12.70
2018-05-14T00:33:50.655Z,12.60
2018-05-14T00:36:18.105Z,12.70
2018-05-14T00:38:46.300Z,12.70
2018-05-14T00:41:13.756Z,12.60
2018-05-14T00:43:41.192Z,12.60
2018-05-14T00:46:08.628Z,12.60
2018-05-14T00:48:37.576Z,12.60
2018-05-14T00:51:05.022Z,12.60
2018-05-14T00:53:32.468Z,12.60
2018-05-14T00:56:00.663Z,12.60
2018-05-14T00:58:28.150Z,12.60
2018-05-14T01:00:55.544Z,12.60
2018-05-14T01:03:22.997Z,12.60
2018-05-14T01:05:50.421Z,12.60
2018-05-14T01:08:18.636Z,12.50
2018-05-14T01:10:46.101Z,12.50
2018-05-14T01:13:14.287Z,12.50
2018-05-14T01:15:42.503Z,12.50
2018-05-14T01:18:09.940Z,12.60
2018-05-14T01:20:37.388Z,12.50
2018-05-14T01:23:05.603Z,12.50
2018-05-14T01:25:33.048Z,12.40
2018-05-14T01:28:01.162Z,12.40
2018-05-14T01:30:28.617Z,12.40
2018-05-14T01:32:56.066Z,12.40
2018-05-14T01:35:23.513Z,12.40
2018-05-14T01:37:50.975Z,12.50
2018-05-14T01:40:18.410Z,12.50
2018-05-14T01:42:45.854Z,12.40
2018-05-14T01:45:13.311Z,12.50
2018-05-14T01:47:40.744Z,12.50
2018-05-14T01:50:08.579Z,12.40
2018-05-14T01:52:36.021Z,12.40
2018-05-14T01:55:03.470Z,12.40
2018-05-14T01:57:31.664Z,12.40
2018-05-14T01:59:59.870Z,12.50
2018-05-14T02:02:27.335Z,12.50
2018-05-14T02:04:55.398Z,12.50
2018-05-14T02:07:23.620Z,12.50
2018-05-14T02:09:51.076Z,12.50
2018-05-14T02:12:18.508Z,12.50
2018-05-14T02:14:46.728Z,12.50
2018-05-14T02:17:14.165Z,12.50
2018-05-14T02:19:42.366Z,12.50
2018-05-14T02:22:09.823Z,12.50
2018-05-14T02:24:38.021Z,12.50
2018-05-14T02:27:05.454Z,12.50
2018-05-14T02:29:33.296Z,12.50
2018-05-14T02:32:00.741Z,12.40
2018-05-14T02:34:28.576Z,12.50
2018-05-14T02:36:56.032Z,12.50
2018-05-14T02:39:23.472Z,12.50
2018-05-14T02:41:50.924Z,12.50
2018-05-14T02:44:18.378Z,12.50
2018-05-14T02:46:45.833Z,12.50
2018-05-14T02:49:14.032Z,12.50
2018-05-14T02:51:41.480Z,12.50
2018-05-14T02:54:09.799Z,12.50
2018-05-14T02:56:37.217Z,12.50
2018-05-14T02:59:04.677Z,12.50
2018-05-14T03:01:32.112Z,12.60
2018-05-14T03:03:59.561Z,12.60
2018-05-14T03:06:27.015Z,12.60
2018-05-14T03:08:55.203Z,12.60
2018-05-14T03:11:22.654Z,12.60
2018-05-14T03:13:51.200Z,12.50
2018-05-14T03:16:19.045Z,12.60
2018-05-14T03:18:46.491Z,12.50
2018-05-14T03:21:14.226Z,12.50
2018-05-14T03:23:41.660Z,12.60
2018-05-14T03:26:09.100Z,12.50
2018-05-14T03:28:36.539Z,12.50
2018-05-14T03:31:03.985Z,12.50
2018-05-14T03:33:31.430Z,12.50
2018-05-14T03:35:58.888Z,12.50
2018-05-14T03:38:27.092Z,12.50
2018-05-14T03:40:54.529Z,12.50
2018-05-14T03:43:22.843Z,12.50
2018-05-14T03:45:50.221Z,12.50
2018-05-14T03:48:17.649Z,12.60
2018-05-14T03:50:45.867Z,12.50
2018-05-14T03:53:13.376Z,12.60
2018-05-14T03:55:40.820Z,12.60
2018-05-14T03:58:20.089Z,12.60
2018-05-14T04:04:05.956Z,12.70
2018-05-14T04:06:34.169Z,12.70
2018-05-14T04:09:01.618Z,12.70
2018-05-14T04:11:29.829Z,12.70
2018-05-14T04:13:58.039Z,12.80
2018-05-14T04:16:25.551Z,12.80
2018-05-14T04:18:52.961Z,12.80
2018-05-14T04:21:20.440Z,12.70
2018-05-14T04:23:47.868Z,12.80
2018-05-14T04:26:16.088Z,12.80
2018-05-14T04:28:43.928Z,12.80
2018-05-14T04:31:12.876Z,12.90
2018-05-14T04:33:40.330Z,12.90
2018-05-14T04:36:07.765Z,12.90
2018-05-14T04:38:35.204Z,12.90
2018-05-14T04:41:02.661Z,12.90
2018-05-14T04:43:30.088Z,12.80
2018-05-14T04:45:57.545Z,12.90
2018-05-14T04:48:25.392Z,12.90
2018-05-14T04:50:53.604Z,12.90
2018-05-14T04:53:21.041Z,12.90
2018-05-14T04:55:48.492Z,13.00
2018-05-14T04:58:15.939Z,12.90
2018-05-14T05:00:43.373Z,13.00
2018-05-14T05:03:10.891Z,13.00
2018-05-14T05:05:38.337Z,13.00
2018-05-14T05:08:05.797Z,13.00
2018-05-14T05:10:33.365Z,13.00
2018-05-14T05:13:01.474Z,13.00
2018-05-14T05:15:28.945Z,13.10
2018-05-14T05:17:56.398Z,13.00
2018-05-14T05:20:23.830Z,13.10
2018-05-14T05:22:51.310Z,13.10
2018-05-14T05:25:19.493Z,13.10
2018-05-14T05:27:47.708Z,13.10
2018-05-14T05:30:15.164Z,13.10
2018-05-14T05:32:42.991Z,13.20
2018-05-14T05:35:11.212Z,13.20
2018-05-14T05:37:38.761Z,13.20
2018-05-14T05:40:06.104Z,13.30
2018-05-14T05:42:33.560Z,13.30
2018-05-14T05:45:01.351Z,13.30
2018-05-14T05:47:29.561Z,13.30
2018-05-14T05:49:57.767Z,13.30
2018-05-14T05:52:25.647Z,13.40
2018-05-14T05:54:53.834Z,13.40
2018-05-14T05:57:21.322Z,13.40
2018-05-14T05:59:48.761Z,13.50
2018-05-14T06:02:16.216Z,13.40
2018-05-14T06:04:43.660Z,13.40
2018-05-14T06:07:11.104Z,13.50
2018-05-14T06:09:38.552Z,13.50
2018-05-14T06:12:06.763Z,13.60
2018-05-14T06:14:34.616Z,13.60
2018-05-14T06:17:02.832Z,13.60
2018-05-14T06:19:30.288Z,13.60
2018-05-14T06:21:57.732Z,13.60
2018-05-14T06:24:26.309Z,13.60
2018-05-14T06:26:53.967Z,13.60
2018-05-14T06:29:22.197Z,13.60
2018-05-14T06:31:49.645Z,13.70
2018-05-14T06:34:17.107Z,13.70
2018-05-14T06:36:44.606Z,13.80
2018-05-14T06:39:12.038Z,13.80
2018-05-14T06:41:39.484Z,13.90
2018-05-14T06:44:08.107Z,13.90
2018-05-14T06:46:36.294Z,13.90
2018-05-14T06:49:03.747Z,14.00
2018-05-14T06:51:31.193Z,14.00
2018-05-14T06:53:59.414Z,14.20
2018-05-14T06:56:26.872Z,14.20
2018-05-14T06:58:54.312Z,14.40
2018-05-14T07:01:21.773Z,14.30
2018-05-14T07:03:49.218Z,14.60
2018-05-14T07:06:16.658Z,13.70
2018-05-14T07:08:44.096Z,14.80
2018-05-14T07:11:12.319Z,14.90
2018-05-14T07:13:39.774Z,14.90
2018-05-14T07:16:07.242Z,15.00
2018-05-14T07:18:34.705Z,15.40
2018-05-14T07:21:03.284Z,15.70
2018-05-14T07:23:31.488Z,15.80
2018-05-14T07:25:58.943Z,15.70
2018-05-14T07:28:26.412Z,15.90
2018-05-14T07:30:53.856Z,16.00
2018-05-14T07:33:22.081Z,16.00
2018-05-14T07:35:49.929Z,15.90
2018-05-14T07:38:18.151Z,16.20
2018-05-14T07:40:46.352Z,16.30
2018-05-14T07:43:13.792Z,16.30
2018-05-14T07:45:41.252Z,16.40
2018-05-14T07:48:08.696Z,16.60
2018-05-14T07:50:36.917Z,16.40
2018-05-14T07:53:04.363Z,16.50
2018-05-14T07:55:31.836Z,16.60
2018-05-14T07:57:59.959Z,16.70
2018-05-14T08:00:27.920Z,16.70
2018-05-14T08:02:55.370Z,16.60
2018-05-14T08:05:22.822Z,16.60
2018-05-14T08:07:51.032Z,16.90
2018-05-14T08:10:18.471Z,16.50
2018-05-14T08:12:46.690Z,16.60
2018-05-14T08:15:14.130Z,16.70
2018-05-14T08:17:42.720Z,16.60
2018-05-14T08:20:10.178Z,16.80
2018-05-14T08:22:37.615Z,16.90
2018-05-14T08:25:05.824Z,16.90
2018-05-14T08:27:33.260Z,16.90
2018-05-14T08:30:00.701Z,16.80
2018-05-14T08:32:28.929Z,17.10
2018-05-14T08:34:56.369Z,17.40
2018-05-14T08:37:23.827Z,17.50
2018-05-14T08:39:51.296Z,17.50
2018-05-14T08:42:18.734Z,17.50
2018-05-14T08:44:46.178Z,17.80
2018-05-14T08:47:13.608Z,17.90
2018-05-14T08:49:41.078Z,17.90
2018-05-14T08:52:08.531Z,17.90
2018-05-14T08:54:36.072Z,17.60
2018-05-14T08:57:05.011Z,17.60
2018-05-14T08:59:32.456Z,17.80
2018-05-14T09:01:59.972Z,17.80
2018-05-14T09:04:27.659Z,18.00
2018-05-14T09:06:55.470Z,17.90
2018-05-14T09:09:22.854Z,17.80
2018-05-14T09:11:50.290Z,17.70
2018-05-14T09:14:18.501Z,18.00
2018-05-14T09:16:46.182Z,18.00
2018-05-14T09:19:13.620Z,18.20
2018-05-14T09:21:41.831Z,18.60
2018-05-14T09:24:09.275Z,19.10
2018-05-14T09:26:37.501Z,18.70
2018-05-14T09:29:04.932Z,18.70
2018-05-14T09:31:33.142Z,18.70
2018-05-14T09:34:00.591Z,18.80
2018-05-14T09:36:28.815Z,18.80
2018-05-14T09:38:56.251Z,18.70
2018-05-14T09:41:23.689Z,18.30
2018-05-14T09:43:51.132Z,18.30
2018-05-14T09:46:18.937Z,18.50
2018-05-14T09:48:46.372Z,18.50
2018-05-14T09:51:13.813Z,18.90
2018-05-14T09:53:41.685Z,19.10
2018-05-14T09:56:09.120Z,19.40
2018-05-14T09:58:36.960Z,19.70
2018-05-14T10:01:05.170Z,19.60
2018-05-14T10:03:33.015Z,19.80
2018-05-14T10:06:00.453Z,19.40
2018-05-14T10:08:27.900Z,19.60
2018-05-14T10:10:56.118Z,19.40
2018-05-14T10:13:23.582Z,19.10
2018-05-14T10:15:51.029Z,19.50
2018-05-14T10:18:19.224Z,19.30
2018-05-14T10:20:46.657Z,19.40
2018-05-14T10:23:14.108Z,19.40
2018-05-14T10:25:41.564Z,19.50
2018-05-14T10:28:09.008Z,19.50
2018-05-14T10:30:36.449Z,20.00
2018-05-14T10:33:05.383Z,20.60
2018-05-14T10:35:32.833Z,21.00
2018-05-14T10:38:00.713Z,20.70
2018-05-14T10:40:28.144Z,20.60
2018-05-14T10:42:55.588Z,20.10
2018-05-14T10:45:23.026Z,20.40
2018-05-14T10:47:51.219Z,20.90
2018-05-14T10:50:18.664Z,20.70
2018-05-14T10:52:46.129Z,20.80
2018-05-14T10:55:13.952Z,20.60
2018-05-14T10:57:41.400Z,20.40
2018-05-14T11:00:08.827Z,20.10
2018-05-14T11:02:37.037Z,20.10
2018-05-14T11:05:04.480Z,20.40
2018-05-14T11:07:32.695Z,21.10
2018-05-14T11:10:00.123Z,21.20
2018-05-14T11:12:28.342Z,21.40
2018-05-14T11:14:55.786Z,21.90
2018-05-14T11:17:23.996Z,22.00
2018-05-14T11:19:51.439Z,21.90
2018-05-14T11:22:19.640Z,21.10
2018-05-14T11:24:47.083Z,20.90
2018-05-14T11:27:14.908Z,21.50
2018-05-14T11:29:42.359Z,21.70
2018-05-14T11:32:09.792Z,22.10
2018-05-14T11:34:37.640Z,23.10
2018-05-14T11:37:05.073Z,23.20
2018-05-14T11:39:32.512Z,23.60
2018-05-14T11:41:59.954Z,23.30
2018-05-14T11:44:27.399Z,23.40
2018-05-14T11:46:54.840Z,22.80
2018-05-14T11:49:22.277Z,22.70
2018-05-14T11:51:50.495Z,22.50
2018-05-14T11:54:17.929Z,23.60
2018-05-14T11:56:46.255Z,23.40
2018-05-14T11:59:13.988Z,24.00
2018-05-14T12:01:42.188Z,23.50
2018-05-14T12:04:10.396Z,23.20
2018-05-14T12:06:37.823Z,22.80
2018-05-14T12:09:05.280Z,23.30
2018-05-14T12:11:32.735Z,22.90
2018-05-14T12:14:00.165Z,22.90
2018-05-14T12:16:27.608Z,23.30
2018-05-14T12:18:55.820Z,24.00
2018-05-14T12:21:23.272Z,24.20
2018-05-14T12:23:50.728Z,24.40
2018-05-14T12:26:18.169Z,24.60
2018-05-14T12:28:45.724Z,24.40
2018-05-14T12:31:13.163Z,24.30
2018-05-14T12:33:40.604Z,23.40
2018-05-14T12:36:08.814Z,23.70
2018-05-14T12:38:36.248Z,23.70
2018-05-14T12:41:04.464Z,23.90
2018-05-14T12:43:31.907Z,24.10
2018-05-14T12:48:28.132Z,25.00
2018-05-14T12:50:55.579Z,24.50
2018-05-14T12:53:23.015Z,24.40
2018-05-14T12:55:51.220Z,23.60
2018-05-14T12:58:18.668Z,22.80
2018-05-14T13:00:46.917Z,23.40
2018-05-14T13:03:14.409Z,23.90
2018-05-14T13:05:41.832Z,24.60
2018-05-14T13:08:09.273Z,24.60
2018-05-14T13:10:36.720Z,24.10
2018-05-14T13:13:05.031Z,24.70
2018-05-14T13:15:33.172Z,25.30
2018-05-14T13:18:00.789Z,25.30
2018-05-14T13:20:28.257Z,25.20
2018-05-14T13:22:55.704Z,24.30
2018-05-14T13:25:23.908Z,24.30
2018-05-14T13:27:51.357Z,24.70
2018-05-14T13:30:19.212Z,25.00
2018-05-14T13:32:46.669Z,25.50
2018-05-14T13:35:14.904Z,25.10
2018-05-14T13:37:42.373Z,25.00
2018-05-14T13:40:09.800Z,25.10
2018-05-14T13:42:37.231Z,25.50
2018-05-14T13:45:04.686Z,25.60
2018-05-14T13:47:32.903Z,26.10
2018-05-14T13:50:00.355Z,26.20
2018-05-14T13:52:27.807Z,26.40
2018-05-14T13:54:55.248Z,26.00
2018-05-14T13:57:23.545Z,26.30
2018-05-14T13:59:50.916Z,26.60
2018-05-14T14:02:18.361Z,26.80
2018-05-14T14:04:46.573Z,25.70
2018-05-14T14:07:14.120Z,25.60
2018-05-14T14:09:41.961Z,26.10
2018-05-14T14:12:09.793Z,26.20
2018-05-14T14:14:37.236Z,26.30
2018-05-14T14:17:05.549Z,26.80
2018-05-14T14:19:32.912Z,27.20
2018-05-14T14:22:00.372Z,27.60
2018-05-14T14:24:28.653Z,27.10
2018-05-14T14:26:56.020Z,27.50
2018-05-14T14:29:23.866Z,27.40
2018-05-14T14:31:51.319Z,27.70
2018-05-14T14:34:18.761Z,27.50
2018-05-14T14:36:46.184Z,27.90
2018-05-14T14:39:13.620Z,28.50
2018-05-14T14:41:41.074Z,28.80
2018-05-14T14:44:08.533Z,27.60
2018-05-14T14:46:35.990Z,27.70
2018-05-14T14:49:03.449Z,28.60
2018-05-14T14:51:30.883Z,28.20
2018-05-14T14:53:58.322Z,28.80
2018-05-14T14:56:25.769Z,29.10
2018-05-14T14:58:53.204Z,29.70
2018-05-14T15:01:21.411Z,29.30
2018-05-14T15:03:48.844Z,29.40
2018-05-14T15:06:17.072Z,29.70
2018-05-14T15:08:45.113Z,30.20
2018-05-14T15:11:12.549Z,29.40
2018-05-14T15:13:39.996Z,29.50
2018-05-14T15:16:07.435Z,28.40
2018-05-14T15:18:35.655Z,28.20
2018-05-14T15:21:03.092Z,27.90
2018-05-14T15:23:31.292Z,28.60
2018-05-14T15:25:59.708Z,29.30
2018-05-14T15:28:27.150Z,28.50
2018-05-14T15:30:54.589Z,28.60
2018-05-14T15:33:22.416Z,27.90
2018-05-14T15:35:50.680Z,27.30
2018-05-14T15:38:18.108Z,26.80
2018-05-14T15:40:47.040Z,26.80
2018-05-14T15:43:15.252Z,26.70
2018-05-14T15:45:42.701Z,26.70
2018-05-14T15:48:10.550Z,26.60
2018-05-14T15:50:37.974Z,26.20
2018-05-14T15:55:34.205Z,25.70
2018-05-14T16:00:31.964Z,25.50
2018-05-14T16:02:59.418Z,25.60
2018-05-14T16:05:27.645Z,25.70
2018-05-14T16:07:55.129Z,25.70
2018-05-14T16:10:23.301Z,25.40
2018-05-14T16:12:51.500Z,25.80
2018-05-14T16:15:18.978Z,26.40
2018-05-14T16:17:46.407Z,27.40
2018-05-14T16:20:13.835Z,27.40
2018-05-14T16:22:41.267Z,26.90
2018-05-14T16:25:09.482Z,26.60
2018-05-14T16:27:38.040Z,26.60
2018-05-14T16:30:06.232Z,26.30
2018-05-14T16:32:34.085Z,26.00
2018-05-14T16:35:02.315Z,25.40
2018-05-14T16:40:09.204Z,25.10
2018-05-14T16:42:41.006Z,25.00
2018-05-14T16:45:13.169Z,24.60
2018-05-14T16:47:40.983Z,24.50
2018-05-14T16:50:08.412Z,24.50
2018-05-14T16:52:35.883Z,24.60
2018-05-14T16:55:03.318Z,24.50
2018-05-14T16:57:31.511Z,25.20
2018-05-14T16:59:59.707Z,26.50
2018-05-14T17:02:27.144Z,27.00
2018-05-14T17:04:54.660Z,26.70
2018-05-14T17:07:22.480Z,26.10
2018-05-14T17:09:49.936Z,25.70
2018-05-14T17:12:17.375Z,25.60
2018-05-14T17:14:44.797Z,25.60
2018-05-14T17:17:12.238Z,25.60
2018-05-14T17:19:40.453Z,25.90
2018-05-14T17:22:07.885Z,25.80
2018-05-14T17:24:35.307Z,25.60
2018-05-14T17:27:03.533Z,25.40
2018-05-14T17:29:32.221Z,25.30
2018-05-14T17:31:59.654Z,25.40
2018-05-14T17:34:27.123Z,25.40
2018-05-14T17:36:54.556Z,25.60
2018-05-14T17:39:23.001Z,25.90
2018-05-14T17:41:50.435Z,25.80
2018-05-14T17:44:18.643Z,26.30
2018-05-14T17:46:46.078Z,26.30
2018-05-14T17:49:13.903Z,26.40
2018-05-14T17:51:41.338Z,25.90
2018-05-14T17:54:09.571Z,25.00
2018-05-14T17:56:37.024Z,25.10
2018-05-14T17:59:05.223Z,25.10
2018-05-14T18:01:32.693Z,25.60
2018-05-14T18:04:00.887Z,25.40
2018-05-14T18:06:28.356Z,25.70
2018-05-14T18:08:56.553Z,25.80
2018-05-14T18:11:23.983Z,25.40
2018-05-14T18:13:51.427Z,24.70
2018-05-14T18:16:19.632Z,24.10
2018-05-14T18:18:47.821Z,23.80
2018-05-14T18:21:15.265Z,23.70
2018-05-14T18:23:46.562Z,23.70
2018-05-14T18:26:17.176Z,23.60
2018-05-14T18:28:48.817Z,23.70
2018-05-14T18:31:21.963Z,23.40
2018-05-14T18:33:50.156Z,23.10
2018-05-14T18:36:17.580Z,23.00
2018-05-14T18:38:45.775Z,22.80
2018-05-14T18:41:14.361Z,22.50
2018-05-14T18:43:41.810Z,22.60
2018-05-14T18:46:09.251Z,22.60
2018-05-14T18:48:37.408Z,22.60
2018-05-14T18:51:05.245Z,22.60
2018-05-14T18:53:33.460Z,22.40
2018-05-14T18:56:00.891Z,22.20
2018-05-14T18:58:28.680Z,21.90
2018-05-14T19:00:56.881Z,21.70
2018-05-14T19:03:24.316Z,21.50
2018-05-14T19:05:51.780Z,21.30
2018-05-14T19:08:19.207Z,21.10
2018-05-14T19:10:52.248Z,21.00
2018-05-14T19:13:19.678Z,20.80
2018-05-14T19:15:52.869Z,20.70
2018-05-14T19:18:20.300Z,20.60
2018-05-14T19:20:48.505Z,20.30
2018-05-14T19:23:22.328Z,20.30
2018-05-14T19:25:49.764Z,20.20
2018-05-14T19:28:23.512Z,19.90
2018-05-14T19:30:50.951Z,19.80
2018-05-14T19:33:24.722Z,19.70
2018-05-14T19:35:57.983Z,19.70
2018-05-14T19:38:25.361Z,19.50
2018-05-14T19:40:52.788Z,19.50
2018-05-14T19:43:20.623Z,19.40
2018-05-14T19:45:48.526Z,19.40
2018-05-14T19:48:16.001Z,19.50
2018-05-14T19:50:43.419Z,19.40
2018-05-14T19:53:10.861Z,19.40
2018-05-14T19:55:38.298Z,19.40
2018-05-14T19:58:06.140Z,19.40
2018-05-14T20:00:33.577Z,19.30
2018-05-14T20:03:01.006Z,19.30
2018-05-14T20:05:28.442Z,19.40
2018-05-14T20:07:55.876Z,19.30
2018-05-14T20:10:24.098Z,19.30
2018-05-14T20:12:51.545Z,19.20
2018-05-14T20:15:19.343Z,19.10
2018-05-14T20:17:46.793Z,19.10
2018-05-14T20:20:15.108Z,19.00
2018-05-14T20:22:42.452Z,18.80
2018-05-14T20:25:10.640Z,18.70
2018-05-14T20:27:38.096Z,18.50
2018-05-14T20:30:07.052Z,18.40
2018-05-14T20:32:34.882Z,18.30
2018-05-14T20:35:03.820Z,18.30
2018-05-14T20:37:31.722Z,18.10
2018-05-14T20:39:59.135Z,18.20
2018-05-14T20:44:55.364Z,17.80
2018-05-14T20:47:22.831Z,17.80
2018-05-14T20:49:50.312Z,17.70
2018-05-14T20:52:17.687Z,17.60
2018-05-14T20:54:45.881Z,17.60
2018-05-14T20:57:14.093Z,17.60
2018-05-14T20:59:41.573Z,17.50
2018-05-14T21:02:08.978Z,17.50
2018-05-14T21:04:36.415Z,17.30
2018-05-14T21:07:04.248Z,17.30
2018-05-14T21:09:32.457Z,17.20
2018-05-14T21:11:59.875Z,17.10
2018-05-14T21:14:27.332Z,17.10
2018-05-14T21:16:55.533Z,16.90
2018-05-14T21:19:23.353Z,16.80
2018-05-14T21:21:51.931Z,16.80
2018-05-14T21:24:19.372Z,16.60
2018-05-14T21:26:47.576Z,16.60
2018-05-14T21:29:15.026Z,16.70
2018-05-14T21:31:42.474Z,16.70
2018-05-14T21:34:09.920Z,16.60
2018-05-14T21:36:37.348Z,16.40
2018-05-14T21:39:05.650Z,16.20
2018-05-14T21:41:33.848Z,16.30
2018-05-14T21:44:01.304Z,16.20
2018-05-14T21:46:29.149Z,16.10
2018-05-14T21:48:57.365Z,16.00
2018-05-14T21:51:24.804Z,16.00
2018-05-14T21:53:53.760Z,16.00
2018-05-14T21:56:21.198Z,15.90
2018-05-14T21:58:48.637Z,15.90
2018-05-14T22:01:16.844Z,15.70
2018-05-14T22:03:44.277Z,15.70
2018-05-14T22:06:12.514Z,15.70
2018-05-14T22:08:39.952Z,15.60
2018-05-14T22:11:08.162Z,15.50
2018-05-14T22:13:36.369Z,15.30
2018-05-14T22:16:03.808Z,15.30
2018-05-14T22:18:31.244Z,15.40
2018-05-14T22:20:58.690Z,15.30
2018-05-14T22:23:26.150Z,15.30
2018-05-14T22:25:53.582Z,15.30
2018-05-14T22:30:49.828Z,15.10
2018-05-14T22:33:17.239Z,15.10
2018-05-14T22:35:44.684Z,15.00
2018-05-14T22:38:12.119Z,15.10
2018-05-14T22:40:39.577Z,15.00
2018-05-14T22:43:07.032Z,15.00
2018-05-14T22:45:35.228Z,14.90
2018-05-14T22:48:02.674Z,14.80
2018-05-14T22:50:30.101Z,14.80
2018-05-14T22:52:57.544Z,14.80
2018-05-14T22:55:25.740Z,14.70
2018-05-14T22:57:53.937Z,14.60
2018-05-14T23:00:24.268Z,14.70
2018-05-14T23:02:52.485Z,14.60
2018-05-14T23:05:19.928Z,14.70
2018-05-14T23:07:47.360Z,14.60
2018-05-14T23:10:14.804Z,14.70
2018-05-14T23:12:43.028Z,14.70
2018-05-14T23:15:10.847Z,14.50
2018-05-14T23:17:38.294Z,14.40
2018-05-14T23:20:05.726Z,14.40
2018-05-14T23:22:41.123Z,14.40
2018-05-14T23:25:08.957Z,14.30
2018-05-14T23:27:36.402Z,14.30
2018-05-14T23:30:03.829Z,14.30
2018-05-14T23:32:31.278Z,14.20
2018-05-14T23:34:59.475Z,14.30
2018-05-14T23:37:26.910Z,14.20
2018-05-14T23:39:54.352Z,14.10
2018-05-14T23:42:21.771Z,14.10
2018-05-14T23:44:49.227Z,14.00
2018-05-14T23:47:17.443Z,14.00
2018-05-14T23:49:44.860Z,14.00
2018-05-14T23:52:12.705Z,14.00
2018-05-14T23:54:40.136Z,14.00
2018-05-14T23:57:08.340Z,13.80
2018-05-14T23:59:35.772Z,13.70
